createdAt,value
2022-08-23T00:01:48.485Z,8.20
2022-08-23T00:04:28.457Z,7.90
2022-08-23T00:07:04.967Z,8.10
2022-08-23T00:09:32.836Z,7.40
2022-08-23T00:12:03.483Z,9.40
2022-08-23T00:14:33.509Z,8.60
2022-08-23T00:17:05.368Z,7.30
2022-08-23T00:19:33.465Z,7.30
2022-08-23T00:22:01.296Z,7.70
2022-08-23T00:24:29.252Z,7.10
2022-08-23T00:27:04.012Z,7.20
2022-08-23T00:29:41.235Z,7.30
2022-08-23T00:32:11.317Z,7.60
2022-08-23T00:34:39.245Z,8.10
2022-08-23T00:37:07.969Z,7.60
2022-08-23T00:39:36.409Z,8.30
2022-08-23T00:42:34.689Z,10.90
2022-08-23T00:45:23.780Z,8.40
2022-08-23T00:47:54.691Z,7.60
2022-08-23T00:50:28.162Z,10.50
2022-08-23T00:53:05.449Z,7.60
2022-08-23T00:55:34.066Z,7.80
2022-08-23T00:58:02.512Z,7.30
2022-08-23T01:00:32.702Z,6.80
2022-08-23T01:03:02.266Z,8.00
2022-08-23T01:05:34.887Z,6.50
2022-08-23T01:08:02.700Z,6.90
2022-08-23T01:10:42.678Z,7.60
2022-08-23T01:13:12.999Z,6.30
2022-08-23T01:15:47.710Z,6.40
2022-08-23T01:18:16.979Z,8.10
2022-08-23T01:21:02.097Z,6.60
2022-08-23T01:23:32.174Z,6.60
2022-08-23T01:26:01.111Z,6.30
2022-08-23T01:28:28.792Z,6.30
2022-08-23T01:30:57.189Z,6.80
2022-08-23T01:33:25.035Z,5.90
2022-08-23T01:35:54.211Z,6.10
2022-08-23T01:38:22.775Z,5.70
2022-08-23T01:40:50.911Z,6.30
2022-08-23T01:43:21.762Z,6.30
2022-08-23T01:45:50.145Z,5.90
2022-08-23T01:48:18.126Z,5.50
2022-08-23T01:50:46.820Z,5.40
2022-08-23T01:53:14.751Z,5.20
2022-08-23T01:55:43.268Z,5.20
2022-08-23T01:58:11.116Z,5.30
2022-08-23T02:00:40.284Z,5.70
2022-08-23T02:03:08.454Z,5.30
2022-08-23T02:05:37.392Z,5.80
2022-08-23T02:08:25.097Z,5.30
2022-08-23T02:10:53.408Z,5.00
2022-08-23T02:13:22.403Z,4.80
2022-08-23T02:15:51.546Z,5.30
2022-08-23T02:18:20.684Z,4.90
2022-08-23T02:20:49.816Z,4.90
2022-08-23T02:23:18.476Z,4.90
2022-08-23T02:25:46.282Z,5.10
2022-08-23T02:28:14.100Z,4.90
2022-08-23T02:30:44.988Z,5.20
2022-08-23T02:33:14.132Z,4.80
2022-08-23T02:35:43.741Z,4.80
2022-08-23T02:38:12.251Z,5.20
2022-08-23T02:40:41.491Z,4.90
2022-08-23T02:43:09.508Z,4.90
2022-08-23T02:45:37.382Z,4.70
2022-08-23T02:48:05.859Z,4.50
2022-08-23T02:50:34.458Z,4.90
2022-08-23T02:53:02.378Z,4.40
2022-08-23T02:55:30.107Z,4.50
2022-08-23T02:57:59.268Z,4.70
2022-08-23T03:00:27.241Z,4.20
2022-08-23T03:02:55.004Z,4.90
2022-08-23T03:05:23.174Z,4.50
2022-08-23T03:07:50.883Z,4.20
2022-08-23T03:10:18.844Z,4.50
2022-08-23T03:12:46.487Z,4.70
2022-08-23T03:15:14.617Z,4.40
2022-08-23T03:17:42.599Z,4.70
2022-08-23T03:20:10.610Z,4.90
2022-08-23T03:22:38.537Z,4.70
2022-08-23T03:25:06.976Z,4.30
2022-08-23T03:27:38.435Z,4.80
2022-08-23T03:30:19.199Z,4.90
2022-08-23T03:32:49.146Z,4.80
2022-08-23T03:35:18.287Z,4.60
2022-08-23T03:37:46.342Z,4.80
2022-08-23T03:40:14.448Z,4.80
2022-08-23T03:42:42.660Z,4.70
2022-08-23T03:45:11.349Z,4.60
2022-08-23T03:47:39.522Z,5.00
2022-08-23T03:50:08.003Z,4.80
2022-08-23T03:52:36.472Z,5.10
2022-08-23T03:55:05.108Z,5.30
2022-08-23T03:57:33.052Z,6.00
2022-08-23T04:00:00.829Z,5.20
2022-08-23T04:02:29.473Z,5.40
2022-08-23T04:04:57.823Z,5.40
2022-08-23T04:07:26.015Z,5.20
2022-08-23T04:09:55.273Z,5.10
2022-08-23T04:12:23.829Z,5.10
2022-08-23T04:14:53.020Z,5.50
2022-08-23T04:17:21.662Z,5.00
2022-08-23T04:19:49.785Z,5.40
2022-08-23T04:22:18.470Z,5.30
2022-08-23T04:24:46.848Z,5.50
2022-08-23T04:27:15.969Z,6.30
2022-08-23T04:29:43.890Z,6.90
2022-08-23T04:32:12.100Z,6.30
2022-08-23T04:34:42.447Z,7.30
2022-08-23T04:37:14.180Z,7.70
2022-08-23T04:40:00.811Z,7.10
2022-08-23T04:42:29.538Z,7.40
2022-08-23T04:44:57.899Z,7.20
2022-08-23T04:47:26.499Z,6.40
2022-08-23T04:49:54.578Z,6.70
2022-08-23T04:52:23.051Z,6.50
2022-08-23T04:54:51.239Z,6.20
2022-08-23T04:57:20.012Z,6.60
2022-08-23T04:59:47.793Z,6.20
2022-08-23T05:02:15.594Z,6.40
2022-08-23T05:04:43.237Z,6.80
2022-08-23T05:07:11.189Z,6.50
2022-08-23T05:09:39.241Z,7.30
2022-08-23T05:12:07.640Z,6.70
2022-08-23T05:14:35.529Z,6.90
2022-08-23T05:17:03.406Z,6.50
2022-08-23T05:19:32.833Z,6.90
2022-08-23T05:22:01.546Z,7.30
2022-08-23T05:24:29.602Z,7.60
2022-08-23T05:26:57.788Z,7.50
2022-08-23T05:29:26.168Z,8.00
2022-08-23T05:31:57.166Z,7.20
2022-08-23T05:34:25.852Z,6.80
2022-08-23T05:36:55.890Z,7.30
2022-08-23T05:39:32.939Z,6.70
2022-08-23T05:42:05.675Z,6.90
2022-08-23T05:44:37.218Z,7.30
2022-08-23T05:47:10.342Z,7.40
2022-08-23T05:49:39.424Z,7.20
2022-08-23T05:52:08.452Z,7.20
2022-08-23T05:54:36.524Z,7.40
2022-08-23T05:57:04.777Z,6.70
2022-08-23T05:59:32.631Z,6.90
2022-08-23T06:02:00.997Z,8.00
2022-08-23T06:04:29.251Z,7.90
2022-08-23T06:06:58.950Z,7.90
2022-08-23T06:09:26.945Z,8.10
2022-08-23T06:11:55.023Z,7.90
2022-08-23T06:14:23.721Z,8.30
2022-08-23T06:16:55.986Z,9.10
2022-08-23T06:19:24.586Z,8.50
2022-08-23T06:21:53.362Z,8.90
2022-08-23T06:24:21.850Z,8.90
2022-08-23T06:26:50.144Z,9.10
2022-08-23T06:29:19.110Z,9.20
2022-08-23T06:31:50.592Z,9.10
2022-08-23T06:34:27.317Z,8.60
2022-08-23T06:36:57.808Z,9.00
2022-08-23T06:39:28.373Z,9.50
2022-08-23T06:42:50.225Z,8.90
2022-08-23T06:45:05.067Z,9.20
2022-08-23T06:47:33.860Z,9.10
2022-08-23T06:50:02.851Z,9.70
2022-08-23T06:52:31.165Z,9.50
2022-08-23T06:55:00.013Z,9.90
2022-08-23T06:57:28.597Z,9.50
2022-08-23T06:59:56.678Z,9.40
2022-08-23T07:02:25.923Z,10.30
2022-08-23T07:04:56.004Z,9.40
2022-08-23T07:07:24.055Z,10.00
2022-08-23T07:10:06.160Z,10.30
2022-08-23T07:12:34.144Z,10.10
2022-08-23T07:15:02.105Z,10.40
2022-08-23T07:17:30.269Z,10.30
2022-08-23T07:19:58.340Z,10.50
2022-08-23T07:22:27.309Z,11.00
2022-08-23T07:24:55.749Z,10.50
2022-08-23T07:27:23.484Z,10.50
2022-08-23T07:29:51.445Z,10.50
2022-08-23T07:32:19.387Z,10.80
2022-08-23T07:34:48.201Z,10.00
2022-08-23T07:37:18.867Z,10.70
2022-08-23T07:39:47.144Z,10.50
2022-08-23T07:42:23.553Z,11.00
2022-08-23T07:44:54.234Z,10.60
2022-08-23T07:47:22.202Z,10.30
2022-08-23T07:49:51.094Z,9.90
2022-08-23T07:52:19.239Z,10.20
2022-08-23T07:54:48.571Z,10.30
2022-08-23T07:57:18.055Z,10.00
2022-08-23T07:59:48.065Z,10.00
2022-08-23T08:02:16.506Z,10.60
2022-08-23T08:04:44.921Z,10.70
2022-08-23T08:07:21.466Z,10.10
2022-08-23T08:09:50.196Z,10.20
2022-08-23T08:12:18.274Z,10.70
2022-08-23T08:14:51.164Z,10.10
2022-08-23T08:17:21.338Z,10.00
2022-08-23T08:19:52.696Z,11.00
2022-08-23T08:22:20.768Z,11.00
2022-08-23T08:24:48.740Z,10.30
2022-08-23T08:27:17.426Z,10.70
2022-08-23T08:29:45.801Z,9.90
2022-08-23T08:32:13.926Z,11.10
2022-08-23T08:34:43.408Z,10.80
2022-08-23T08:37:12.281Z,10.60
2022-08-23T08:39:46.032Z,10.60
2022-08-23T08:42:14.952Z,10.70
2022-08-23T08:44:44.185Z,10.90
2022-08-23T08:47:36.736Z,10.50
2022-08-23T08:50:09.823Z,10.50
2022-08-23T08:52:41.553Z,10.40
2022-08-23T08:55:12.697Z,10.80
2022-08-23T08:57:43.328Z,10.70
2022-08-23T09:00:16.066Z,10.70
2022-08-23T09:02:45.493Z,10.10
2022-08-23T09:05:15.575Z,10.30
2022-08-23T09:07:53.108Z,11.40
2022-08-23T09:10:36.478Z,11.00
2022-08-23T09:13:11.812Z,11.60
2022-08-23T09:15:44.299Z,11.60
2022-08-23T09:18:15.234Z,11.80
2022-08-23T09:20:44.096Z,11.60
2022-08-23T09:23:20.973Z,11.70
2022-08-23T09:25:58.852Z,11.70
2022-08-23T09:28:33.525Z,12.40
2022-08-23T09:31:02.303Z,11.30
2022-08-23T09:33:41.842Z,11.80
2022-08-23T09:36:19.273Z,11.90
2022-08-23T09:38:52.508Z,12.00
2022-08-23T09:41:24.349Z,12.00
2022-08-23T09:43:52.543Z,12.10
2022-08-23T09:46:28.538Z,12.00
2022-08-23T09:48:59.107Z,11.80
2022-08-23T09:51:30.399Z,12.20
2022-08-23T09:54:07.396Z,11.30
2022-08-23T09:56:45.745Z,10.50
2022-08-23T09:59:40.074Z,9.70
2022-08-23T10:02:13.963Z,9.40
2022-08-23T10:04:48.120Z,9.60
2022-08-23T10:07:36.098Z,9.00
2022-08-23T10:10:14.071Z,8.90
2022-08-23T10:12:42.377Z,8.00
2022-08-23T10:15:10.587Z,7.50
2022-08-23T10:17:45.334Z,7.50
2022-08-23T10:20:35.754Z,7.10
2022-08-23T10:23:04.917Z,7.00
2022-08-23T10:26:08.817Z,6.80
2022-08-23T10:29:23.031Z,6.90
2022-08-23T10:31:51.601Z,7.30
2022-08-23T10:34:29.975Z,6.80
2022-08-23T10:37:17.343Z,6.80
2022-08-23T10:39:50.219Z,6.10
2022-08-23T10:42:22.420Z,6.10
2022-08-23T10:45:00.198Z,6.50
2022-08-23T10:47:34.137Z,6.30
2022-08-23T10:50:05.170Z,6.30
2022-08-23T10:52:41.138Z,6.30
2022-08-23T10:55:17.846Z,6.30
2022-08-23T10:57:47.813Z,7.00
2022-08-23T11:00:18.247Z,7.20
2022-08-23T11:03:05.932Z,7.30
2022-08-23T11:05:37.865Z,7.90
2022-08-23T11:08:31.015Z,8.00
2022-08-23T11:10:58.984Z,8.60
2022-08-23T11:13:27.837Z,9.60
2022-08-23T11:15:56.680Z,10.10
2022-08-23T11:18:43.449Z,10.10
2022-08-23T11:21:33.699Z,10.60
2022-08-23T11:24:02.764Z,11.00
2022-08-23T11:26:36.310Z,12.40
2022-08-23T11:29:07.485Z,11.90
2022-08-23T11:31:35.547Z,12.60
2022-08-23T11:34:05.196Z,13.40
2022-08-23T11:36:34.478Z,14.00
2022-08-23T11:39:11.301Z,14.10
2022-08-23T11:41:55.074Z,13.10
2022-08-23T11:44:38.394Z,14.00
2022-08-23T11:47:09.882Z,13.10
2022-08-23T11:49:53.698Z,12.90
2022-08-23T11:52:30.573Z,13.40
2022-08-23T11:57:30.822Z,12.90
2022-08-23T12:00:03.631Z,13.00
2022-08-23T12:02:35.864Z,13.40
2022-08-23T12:05:32.753Z,13.20
2022-08-23T12:08:04.234Z,14.30
2022-08-23T12:10:43.285Z,13.80
2022-08-23T12:13:22.829Z,14.30
2022-08-23T12:16:16.379Z,14.30
2022-08-23T12:18:54.420Z,13.90
2022-08-23T12:21:26.503Z,13.70
2022-08-23T12:24:01.317Z,14.30
2022-08-23T12:26:29.676Z,13.50
2022-08-23T12:29:02.416Z,13.50
2022-08-23T12:31:39.014Z,13.10
2022-08-23T12:34:30.337Z,13.70
2022-08-23T12:36:58.415Z,14.30
2022-08-23T12:39:30.369Z,14.00
2022-08-23T12:42:15.838Z,14.70
2022-08-23T12:44:45.420Z,13.40
2022-08-23T12:47:13.635Z,14.20
2022-08-23T12:49:41.988Z,13.90
2022-08-23T12:52:13.709Z,13.90
2022-08-23T12:54:43.280Z,13.70
2022-08-23T12:57:17.589Z,13.40
2022-08-23T13:00:16.589Z,13.50
2022-08-23T13:02:57.066Z,13.00
2022-08-23T13:05:40.003Z,13.20
2022-08-23T13:08:10.221Z,13.10
2022-08-23T13:10:39.446Z,12.10
2022-08-23T13:13:10.427Z,12.40
2022-08-23T13:15:50.656Z,12.80
2022-08-23T13:18:33.260Z,13.10
2022-08-23T13:21:20.313Z,13.70
2022-08-23T13:23:48.229Z,12.80
2022-08-23T13:26:39.264Z,13.10
2022-08-23T13:29:21.800Z,13.40
2022-08-23T13:32:02.650Z,12.80
2022-08-23T13:34:39.871Z,12.40
2022-08-23T13:37:20.955Z,13.60
2022-08-23T13:39:51.757Z,12.30
2022-08-23T13:42:27.219Z,12.00
2022-08-23T13:44:56.212Z,12.90
2022-08-23T13:47:26.222Z,12.30
2022-08-23T13:49:54.847Z,12.20
2022-08-23T13:53:02.768Z,11.70
2022-08-23T13:55:11.730Z,11.70
2022-08-23T13:57:41.235Z,11.40
2022-08-23T14:00:11.021Z,11.40
2022-08-23T14:02:39.859Z,10.90
2022-08-23T14:05:09.736Z,11.90
2022-08-23T14:07:37.547Z,10.60
2022-08-23T14:10:06.568Z,11.10
2022-08-23T14:12:36.044Z,11.00
2022-08-23T14:15:05.801Z,11.40
2022-08-23T14:17:35.877Z,11.50
2022-08-23T14:22:53.720Z,12.30
2022-08-23T14:25:21.887Z,12.10
2022-08-23T14:27:51.023Z,13.20
2022-08-23T14:30:24.389Z,12.70
2022-08-23T14:32:59.200Z,13.10
2022-08-23T14:35:27.840Z,13.30
2022-08-23T14:38:04.605Z,13.00
2022-08-23T14:40:35.898Z,12.90
2022-08-23T14:43:05.447Z,12.60
2022-08-23T14:45:33.526Z,12.60
2022-08-23T14:48:02.978Z,13.40
2022-08-23T14:50:31.209Z,13.10
2022-08-23T14:53:03.025Z,13.30
2022-08-23T14:55:31.183Z,12.30
2022-08-23T14:58:00.214Z,17.70
2022-08-23T15:00:29.163Z,47.50
2022-08-23T15:02:57.576Z,92.90
2022-08-23T15:05:25.752Z,57.30
2022-08-23T15:07:53.781Z,65.00
2022-08-23T15:13:22.884Z,94.70
2022-08-23T15:15:57.424Z,92.70
2022-08-23T15:18:26.409Z,55.40
2022-08-23T15:20:56.477Z,80.00
2022-08-23T15:23:25.244Z,97.70
2022-08-23T15:25:54.323Z,43.20
2022-08-23T15:28:22.900Z,30.40
2022-08-23T15:30:51.715Z,20.10
2022-08-23T15:33:24.674Z,14.30
2022-08-23T15:35:56.104Z,13.10
2022-08-23T15:38:25.194Z,14.10
2022-08-23T15:40:53.909Z,13.60
2022-08-23T15:43:22.680Z,12.80
2022-08-23T15:45:54.399Z,13.80
2022-08-23T15:48:30.329Z,14.20
2022-08-23T15:50:59.017Z,14.80
2022-08-23T15:53:27.780Z,13.50
2022-08-23T15:55:55.862Z,13.50
2022-08-23T15:58:25.363Z,12.90
2022-08-23T16:00:55.233Z,12.40
2022-08-23T16:03:23.726Z,13.50
2022-08-23T16:05:53.924Z,14.00
2022-08-23T16:08:27.900Z,14.50
2022-08-23T16:10:56.459Z,14.40
2022-08-23T16:13:26.304Z,13.80
2022-08-23T16:15:54.894Z,13.90
2022-08-23T16:18:23.148Z,13.80
2022-08-23T16:20:54.384Z,13.60
2022-08-23T16:23:23.930Z,14.60
2022-08-23T16:25:54.440Z,14.80
2022-08-23T16:28:25.554Z,15.20
2022-08-23T16:30:53.430Z,14.60
2022-08-23T16:33:21.909Z,15.50
2022-08-23T16:35:50.075Z,16.10
2022-08-23T16:38:18.051Z,15.60
2022-08-23T16:40:46.117Z,15.60
2022-08-23T16:43:14.295Z,15.90
2022-08-23T16:45:42.181Z,15.80
2022-08-23T16:48:14.567Z,15.40
2022-08-23T16:50:44.117Z,15.80
2022-08-23T16:53:12.717Z,16.10
2022-08-23T16:55:40.790Z,16.40
2022-08-23T16:58:09.961Z,15.60
2022-08-23T17:00:39.533Z,15.10
2022-08-23T17:03:07.473Z,14.30
2022-08-23T17:05:36.146Z,14.20
2022-08-23T17:08:04.219Z,13.50
2022-08-23T17:10:34.029Z,13.80
2022-08-23T17:13:02.477Z,15.00
2022-08-23T17:15:34.574Z,14.20
2022-08-23T17:18:04.038Z,15.30
2022-08-23T17:20:34.324Z,14.60
2022-08-23T17:23:05.682Z,15.50
2022-08-23T17:25:34.922Z,15.50
2022-08-23T17:28:03.534Z,16.30
2022-08-23T17:30:31.815Z,15.80
2022-08-23T17:33:00.701Z,16.60
2022-08-23T17:35:33.882Z,18.00
2022-08-23T17:38:07.046Z,17.40
2022-08-23T17:40:36.496Z,17.80
2022-08-23T17:43:05.027Z,17.20
2022-08-23T17:45:34.714Z,17.00
2022-08-23T17:48:03.722Z,17.00
2022-08-23T17:50:35.633Z,16.80
2022-08-23T17:53:05.029Z,17.50
2022-08-23T17:55:34.145Z,16.90
2022-08-23T17:58:04.062Z,18.00
2022-08-23T18:00:33.819Z,18.30
2022-08-23T18:03:03.274Z,17.60
2022-08-23T18:05:33.593Z,17.30
2022-08-23T18:08:03.557Z,17.10
2022-08-23T18:10:32.485Z,17.00
2022-08-23T18:13:01.577Z,17.50
2022-08-23T18:15:31.494Z,17.30
2022-08-23T18:18:03.866Z,18.00
2022-08-23T18:20:34.044Z,17.60
2022-08-23T18:23:05.223Z,17.90
2022-08-23T18:25:50.713Z,18.30
2022-08-23T18:28:22.653Z,17.20
2022-08-23T18:31:14.995Z,17.20
2022-08-23T18:34:21.105Z,18.20
2022-08-23T18:36:50.187Z,17.20
2022-08-23T18:39:27.703Z,16.90
2022-08-23T18:42:04.764Z,16.90
2022-08-23T18:44:36.401Z,17.90
2022-08-23T18:47:06.293Z,18.30
2022-08-23T18:49:36.269Z,17.70
2022-08-23T18:52:06.584Z,18.10
2022-08-23T18:54:36.774Z,18.90
2022-08-23T18:57:06.397Z,18.30
2022-08-23T18:59:34.556Z,18.50
2022-08-23T19:02:04.368Z,18.00
2022-08-23T19:04:34.798Z,18.60
2022-08-23T19:07:06.714Z,19.50
2022-08-23T19:09:36.280Z,18.70
2022-08-23T19:12:06.765Z,19.60
2022-08-23T19:14:36.621Z,18.80
2022-08-23T19:17:08.967Z,19.30
2022-08-23T19:19:39.402Z,19.00
2022-08-23T19:22:09.161Z,20.40
2022-08-23T19:24:38.736Z,20.40
2022-08-23T19:27:09.798Z,20.00
2022-08-23T19:29:41.890Z,21.00
2022-08-23T19:32:14.853Z,20.10
2022-08-23T19:34:46.074Z,20.40
2022-08-23T19:37:23.237Z,19.80
2022-08-23T19:39:54.401Z,21.60
2022-08-23T19:42:25.122Z,21.30
2022-08-23T19:45:00.965Z,20.60
2022-08-23T19:47:29.569Z,21.60
2022-08-23T19:50:00.883Z,21.10
2022-08-23T19:52:29.589Z,20.90
2022-08-23T19:55:00.782Z,21.30
2022-08-23T19:57:36.734Z,21.90
2022-08-23T20:00:19.395Z,20.90
2022-08-23T20:02:50.302Z,21.80
2022-08-23T20:05:21.684Z,21.20
2022-08-23T20:07:51.626Z,21.20
2022-08-23T20:10:21.673Z,21.20
2022-08-23T20:12:53.119Z,21.80
2022-08-23T20:15:24.258Z,22.70
2022-08-23T20:17:53.889Z,21.90
2022-08-23T20:20:23.838Z,22.90
2022-08-23T20:23:12.010Z,22.90
2022-08-23T20:25:43.427Z,22.70
2022-08-23T20:28:12.115Z,22.10
2022-08-23T20:30:40.585Z,22.30
2022-08-23T20:33:08.672Z,22.20
2022-08-23T20:35:36.841Z,22.50
2022-08-23T20:38:05.337Z,23.70
2022-08-23T20:40:34.335Z,23.10
2022-08-23T20:43:02.954Z,23.90
2022-08-23T20:45:33.354Z,22.90
2022-08-23T20:48:01.596Z,23.40
2022-08-23T20:50:29.808Z,23.20
2022-08-23T20:52:57.983Z,23.20
2022-08-23T20:55:26.660Z,24.20
2022-08-23T20:57:54.801Z,23.70
2022-08-23T21:00:26.099Z,23.10
2022-08-23T21:02:54.534Z,22.20
2022-08-23T21:05:24.837Z,22.90
2022-08-23T21:07:55.593Z,22.50
2022-08-23T21:10:24.894Z,23.20
2022-08-23T21:12:53.158Z,21.70
2022-08-23T21:15:21.048Z,21.80
2022-08-23T21:17:50.014Z,21.90
2022-08-23T21:20:17.988Z,21.40
2022-08-23T21:22:46.185Z,21.40
2022-08-23T21:25:14.852Z,21.10
2022-08-23T21:27:45.173Z,21.50
2022-08-23T21:30:16.853Z,20.80
2022-08-23T21:32:47.164Z,20.80
2022-08-23T21:35:15.229Z,20.40
2022-08-23T21:37:42.981Z,20.40
2022-08-23T21:40:11.240Z,20.70
2022-08-23T21:42:39.128Z,20.90
2022-08-23T21:45:07.730Z,20.80
2022-08-23T21:47:36.154Z,20.90
2022-08-23T21:50:04.994Z,20.30
2022-08-23T21:52:33.236Z,20.70
2022-08-23T21:55:04.372Z,19.90
2022-08-23T21:57:34.487Z,20.10
2022-08-23T22:00:08.917Z,20.10
2022-08-23T22:02:38.661Z,19.40
2022-08-23T22:05:07.875Z,19.40
2022-08-23T22:07:36.172Z,19.90
2022-08-23T22:10:07.940Z,20.30
2022-08-23T22:12:37.077Z,19.80
2022-08-23T22:15:05.843Z,18.80
2022-08-23T22:17:33.932Z,19.20
2022-08-23T22:20:04.690Z,19.90
2022-08-23T22:22:37.391Z,19.40
2022-08-23T22:25:06.646Z,19.50
2022-08-23T22:27:34.719Z,19.80
2022-08-23T22:30:02.894Z,20.20
2022-08-23T22:32:31.516Z,19.20
2022-08-23T22:34:59.442Z,20.30
2022-08-23T22:37:28.196Z,20.00
2022-08-23T22:39:57.323Z,20.10
2022-08-23T22:42:27.348Z,20.00
2022-08-23T22:44:56.098Z,20.40
2022-08-23T22:47:24.100Z,20.60
2022-08-23T22:49:52.177Z,19.20
2022-08-23T22:52:20.554Z,19.50
2022-08-23T22:54:48.469Z,19.60
2022-08-23T22:57:16.600Z,20.40
2022-08-23T22:59:44.555Z,20.50
2022-08-23T23:02:18.260Z,19.50
2022-08-23T23:04:47.048Z,20.60
2022-08-23T23:07:35.218Z,20.50
2022-08-23T23:10:03.705Z,20.50
2022-08-23T23:12:31.945Z,21.10
2022-08-23T23:14:59.954Z,20.70
2022-08-23T23:17:27.987Z,20.60
2022-08-23T23:20:14.898Z,20.70
2022-08-23T23:22:44.285Z,20.20
2022-08-23T23:25:12.046Z,20.90
2022-08-23T23:27:39.972Z,21.50
2022-08-23T23:30:08.961Z,21.30
2022-08-23T23:32:37.089Z,20.60
2022-08-23T23:35:05.272Z,21.30
2022-08-23T23:37:33.145Z,20.90
2022-08-23T23:40:00.946Z,21.30
2022-08-23T23:42:29.175Z,20.90
2022-08-23T23:44:57.052Z,20.70
2022-08-23T23:47:24.843Z,20.00
2022-08-23T23:49:52.877Z,19.80
2022-08-23T23:52:20.745Z,19.20
2022-08-23T23:54:50.391Z,19.20
2022-08-23T23:57:18.451Z,20.30
2022-08-23T23:59:46.925Z,21.40
